Latest Weather Observations for St Kilda Harbour RMYS

IDV60801

Issued at 5:12 pm EDT Thursday 28 January 2021 (issued every 10 minutes, with the page automatically refreshed every 10 minutes)

About weather observations | Map of weather stations | Latest weather observations for VIC | Other Formats
Station Details ID: 086220 Name: ST KILDA HARBOUR - RMYS Lat: -37.86 Lon: 144.96 Height: 6.4 m
Data from the previous 72 hours. | See also: Recent months at St Kilda Harbour RMYS
Date/Time
EDT
Temp
°C
App
Temp
°C
Dew
Point
°C
Rel
Hum
%
Delta-T
°C
Wind Press
QNH
hPa
Press
MSL
hPa
Rain since
9am
mm
Dir  Spd
km/h
Gust
km/h
Spd
kts
Gust
kts
28/05:00pm - - - - - ESE 17 24 9 13 - - -
28/04:30pm - - - - - E 15 20 8 11 - - -
28/04:00pm - - - - - ESE 13 20 7 11 - - -
28/03:30pm - - - - - ESE 17 24 9 13 - - -
28/03:00pm - - - - - E 17 24 9 13 - - -
28/02:30pm - - - - - ESE 20 28 11 15 - - -
28/02:00pm - - - - - ESE 22 32 12 17 - - -
28/01:30pm - - - - - ESE 20 26 11 14 - - -
28/01:00pm - - - - - ESE 15 19 8 10 - - -
28/12:30pm - - - - - ENE 11 20 6 11 - - -
28/12:00pm - - - - - SE 13 19 7 10 - - -
28/11:30am - - - - - SE 13 19 7 10 - - -
28/11:00am - - - - - ESE 13 19 7 10 - - -
28/10:30am - - - - - ESE 11 19 6 10 - - -
28/10:00am - - - - - ESE 9 17 5 9 - - -
28/09:30am - - - - - ESE 17 22 9 12 - - -
28/09:00am - - - - - ESE 15 20 8 11 - - -
28/08:30am - - - - - ESE 11 17 6 9 - - -
28/08:00am - - - - - E 13 17 7 9 - - -
28/07:30am - - - - - E 9 15 5 8 - - -
28/07:00am - - - - - E 11 17 6 9 - - -
28/06:30am - - - - - ESE 15 20 8 11 - - -
28/06:00am - - - - - ESE 15 20 8 11 - - -
28/05:30am - - - - - ESE 17 26 9 14 - - -
28/05:00am - - - - - ESE 17 26 9 14 - - -
28/04:30am - - - - - ESE 17 24 9 13 - - -
28/04:00am - - - - - ESE 19 30 10 16 - - -
28/03:30am - - - - - ESE 17 24 9 13 - - -
28/03:00am - - - - - ESE 17 26 9 14 - - -
28/02:30am - - - - - ESE 17 26 9 14 - - -
28/02:00am - - - - - ESE 22 30 12 16 - - -
28/01:30am - - - - - ESE 20 30 11 16 - - -
28/01:00am - - - - - ESE 24 37 13 20 - - -
28/12:30am - - - - - ESE 26 41 14 22 - - -
28/12:00am - - - - - ESE 30 43 16 23 - - -
 
Date/Time
EDT
Temp
°C
App
Temp
°C
Dew
Point
°C
Rel
Hum
%
Delta-T
°C
Wind Press
QNH
hPa
Press
MSL
hPa
Rain since
9am
mm
Dir  Spd
km/h
Gust
km/h
Spd
kts
Gust
kts
27/11:30pm - - - - - ESE 30 44 16 24 - - -
27/11:00pm - - - - - ESE 33 46 18 25 - - -
27/10:30pm - - - - - ESE 35 50 19 27 - - -
27/10:01pm - - - - - ESE 35 54 19 29 - - -
27/10:00pm - - - - - ESE 37 54 20 29 - - -
27/09:30pm - - - - - ESE 35 56 19 30 - - -
27/09:00pm - - - - - ESE 35 54 19 29 - - -
27/08:38pm - - - - - ESE 32 50 17 27 - - -
27/08:30pm - - - - - ESE 37 54 20 29 - - -
27/08:10pm - - - - - ESE 30 50 16 27 - - -
27/08:00pm - - - - - ESE 33 46 18 25 - - -
27/07:30pm - - - - - ESE 30 43 16 23 - - -
27/07:00pm - - - - - ESE 30 43 16 23 - - -
27/06:30pm - - - - - ESE 24 41 13 22 - - -
27/06:00pm - - - - - ESE 26 39 14 21 - - -
27/05:47pm - - - - - S 32 46 17 25 - - -
27/05:30pm - - - - - SSW 41 54 22 29 - - -
27/05:00pm - - - - - SSW 41 48 22 26 - - -
27/04:30pm - - - - - SSW 44 52 24 28 - - -
27/04:00pm - - - - - SSW 43 50 23 27 - - -
27/03:30pm - - - - - SSW 39 48 21 26 - - -
27/03:00pm - - - - - SSW 39 46 21 25 - - -
27/02:30pm - - - - - S 28 39 15 21 - - -
27/02:00pm - - - - - S 26 33 14 18 - - -
27/01:30pm - - - - - S 26 35 14 19 - - -
27/01:00pm - - - - - SSW 28 35 15 19 - - -
27/12:30pm - - - - - SSW 28 33 15 18 - - -
27/12:00pm - - - - - S 28 33 15 18 - - -
27/11:30am - - - - - S 26 35 14 19 - - -
27/11:00am - - - - - S 28 33 15 18 - - -
27/10:30am - - - - - S 30 37 16 20 - - -
27/10:00am - - - - - SSE 24 30 13 16 - - -
27/09:30am - - - - - SE 26 37 14 20 - - -
27/09:00am - - - - - SE 22 30 12 16 - - -
27/08:30am - - - - - SE 20 35 11 19 - - -
27/08:00am - - - - - SE 19 30 10 16 - - -
27/07:30am - - - - - SE 24 37 13 20 - - -
27/07:00am - - - - - SE 20 30 11 16 - - -
27/06:30am - - - - - SE 20 26 11 14 - - -
27/06:00am - - - - - SE 17 28 9 15 - - -
27/05:30am - - - - - SE 20 28 11 15 - - -
27/05:00am - - - - - SE 24 35 13 19 - - -
27/04:30am - - - - - SE 19 26 10 14 - - -
27/04:00am - - - - - SE 22 35 12 19 - - -
27/03:30am - - - - - SE 20 28 11 15 - - -
27/03:00am - - - - - SSE 32 39 17 21 - - -
27/02:30am - - - - - SE 24 32 13 17 - - -
27/02:00am - - - - - SSE 26 39 14 21 - - -
27/01:30am - - - - - SSE 30 43 16 23 - - -
27/01:00am - - - - - SSE 33 43 18 23 - - -
27/12:30am - - - - - SSE 35 43 19 23 - - -
27/12:00am - - - - - SSE 35 41 19 22 - - -
 
Date/Time
EDT
Temp
°C
App
Temp
°C
Dew
Point
°C
Rel
Hum
%
Delta-T
°C
Wind Press
QNH
hPa
Press
MSL
hPa
Rain since
9am
mm
Dir  Spd
km/h
Gust
km/h
Spd
kts
Gust
kts
26/11:30pm - - - - - S 32 41 17 22 - - -
26/11:00pm - - - - - SSE 33 39 18 21 - - -
26/10:30pm - - - - - S 33 41 18 22 - - -
26/10:00pm - - - - - S 33 41 18 22 - - -
26/09:30pm - - - - - S 33 41 18 22 - - -
26/09:00pm - - - - - S 33 39 18 21 - - -
26/08:30pm - - - - - S 32 37 17 20 - - -
26/08:00pm - - - - - S 35 41 19 22 - - -
26/07:30pm - - - - - S 37 44 20 24 - - -
26/07:00pm - - - - - S 32 39 17 21 - - -
26/06:30pm - - - - - SSW 33 41 18 22 - - -
26/06:00pm - - - - - SSW 33 41 18 22 - - -
26/05:30pm - - - - - S 32 39 17 21 - - -
26/05:00pm - - - - - S 33 41 18 22 - - -
26/04:30pm - - - - - S 32 39 17 21 - - -
26/04:00pm - - - - - S 30 39 16 21 - - -
26/03:30pm - - - - - S 30 41 16 22 - - -
26/03:00pm - - - - - S 33 41 18 22 - - -
26/02:30pm - - - - - SSW 41 46 22 25 - - -
26/02:00pm - - - - - S 26 35 14 19 - - -
26/01:30pm - - - - - SSW 33 39 18 21 - - -
26/01:00pm - - - - - S 33 43 18 23 - - -
26/12:30pm - - - - - SSW 37 43 20 23 - - -
26/12:00pm - - - - - S 39 46 21 25 - - -
26/11:30am - - - - - SSW 37 43 20 23 - - -
26/11:00am - - - - - SSW 33 41 18 22 - - -
26/10:30am - - - - - SSW 33 39 18 21 - - -
26/10:00am - - - - - S 30 37 16 20 - - -
26/09:30am - - - - - SSW 32 37 17 20 - - -
26/09:00am - - - - - SSW 37 43 20 23 - - -
26/08:30am - - - - - S 35 41 19 22 - - -
26/08:00am - - - - - SSW 35 39 19 21 - - -
26/07:30am - - - - - SSW 32 35 17 19 - - -
26/07:00am - - - - - SSW 32 35 17 19 - - -
26/06:30am - - - - - SSW 35 39 19 21 - - -
26/06:00am - - - - - SSW 32 35 17 19 - - -
26/05:30am - - - - - SSW 33 39 18 21 - - -
26/05:00am - - - - - WSW 19 26 10 14 - - -
26/04:30am - - - - - NW 2 4 1 2 - - -
26/04:00am - - - - - N 4 6 2 3 - - -
26/03:30am - - - - - NNE 9 15 5 8 - - -
26/03:00am - - - - - N 6 9 3 5 - - -
26/02:30am - - - - - NNE 7 13 4 7 - - -
26/02:00am - - - - - NE 2 6 1 3 - - -
26/01:30am - - - - - N 7 11 4 6 - - -
26/01:00am - - - - - NE 9 13 5 7 - - -
26/12:30am - - - - - NNE 15 24 8 13 - - -
26/12:00am - - - - - ENE 6 11 3 6 - - -
 
Date/Time
EDT
Temp
°C
App
Temp
°C
Dew
Point
°C
Rel
Hum
%
Delta-T
°C
Wind Press
QNH
hPa
Press
MSL
hPa
Rain since
9am
mm
Dir  Spd
km/h
Gust
km/h
Spd
kts
Gust
kts
25/11:30pm - - - - - N 9 13 5 7 - - -
25/11:00pm - - - - - NW 4 7 2 4 - - -
25/10:30pm - - - - - SW 9 13 5 7 - - -
25/10:00pm - - - - - SSW 19 22 10 12 - - -
25/09:30pm - - - - - SSW 33 41 18 22 - - -
25/09:00pm - - - - - SW 39 46 21 25 - - -
25/08:30pm - - - - - SSW 28 41 15 22 - - -
25/08:00pm - - - - - SSE 19 22 10 12 - - -
25/07:30pm - - - - - S 24 28 13 15 - - -
25/07:00pm - - - - - S 22 28 12 15 - - -
25/06:30pm - - - - - S 19 22 10 12 - - -
25/06:00pm - - - - - SSW 20 26 11 14 - - -
25/05:30pm - - - - - SSE 22 32 12 17 - - -

Other formats

Comma delimited format used in spreadsheet applications
http://www.bom.gov.au/fwo/IDV60801/IDV60801.95864.axf

JavaScript Object Notation format (JSON) in row-major order
http://www.bom.gov.au/fwo/IDV60801/IDV60801.95864.json

Data quality

Most of these data are generated automatically and are frequently updated. Quality checks on data are not normally performed. It is possible for incorrect values to appear. Refer to information at About Latest Weather Observations and please check the disclaimer before using these data.